sensor_id;sensor_type;location;lat;lon;timestamp;P1;durP1;ratioP1;P2;durP2;ratioP2
32082;SDS011;18597;48.328;7.932;2024-03-08T00:02:03;81.13;;;35.50;;
32082;SDS011;18597;48.328;7.932;2024-03-08T00:04:29;83.50;;;34.80;;
32082;SDS011;18597;48.328;7.932;2024-03-08T00:06:55;76.40;;;33.63;;
32082;SDS011;18597;48.328;7.932;2024-03-08T00:09:20;72.00;;;32.23;;
32082;SDS011;18597;48.328;7.932;2024-03-08T00:11:46;75.70;;;32.87;;
32082;SDS011;18597;48.328;7.932;2024-03-08T00:14:15;65.30;;;29.63;;
32082;SDS011;18597;48.328;7.932;2024-03-08T00:16:41;71.67;;;34.13;;
32082;SDS011;18597;48.328;7.932;2024-03-08T00:19:08;67.47;;;30.70;;
32082;SDS011;18597;48.328;7.932;2024-03-08T00:21:35;75.30;;;34.27;;
32082;SDS011;18597;48.328;7.932;2024-03-08T00:24:01;73.80;;;32.97;;
32082;SDS011;18597;48.328;7.932;2024-03-08T00:26:27;77.87;;;33.87;;
32082;SDS011;18597;48.328;7.932;2024-03-08T00:28:54;70.20;;;33.60;;
32082;SDS011;18597;48.328;7.932;2024-03-08T00:31:20;76.67;;;34.27;;
32082;SDS011;18597;48.328;7.932;2024-03-08T00:33:46;73.77;;;33.63;;
32082;SDS011;18597;48.328;7.932;2024-03-08T00:36:12;68.47;;;32.40;;
32082;SDS011;18597;48.328;7.932;2024-03-08T00:38:38;77.40;;;34.23;;
32082;SDS011;18597;48.328;7.932;2024-03-08T00:41:04;76.60;;;34.47;;
32082;SDS011;18597;48.328;7.932;2024-03-08T00:43:30;71.70;;;33.20;;
32082;SDS011;18597;48.328;7.932;2024-03-08T00:45:56;79.30;;;34.27;;
32082;SDS011;18597;48.328;7.932;2024-03-08T00:48:22;72.50;;;32.10;;
32082;SDS011;18597;48.328;7.932;2024-03-08T00:50:48;77.33;;;33.80;;
32082;SDS011;18597;48.328;7.932;2024-03-08T00:53:14;66.77;;;31.97;;
32082;SDS011;18597;48.328;7.932;2024-03-08T00:55:40;72.87;;;33.53;;
32082;SDS011;18597;48.328;7.932;2024-03-08T00:58:06;60.70;;;31.77;;
32082;SDS011;18597;48.328;7.932;2024-03-08T01:00:34;61.60;;;31.10;;
32082;SDS011;18597;48.328;7.932;2024-03-08T01:03:00;73.70;;;34.60;;
32082;SDS011;18597;48.328;7.932;2024-03-08T01:05:25;56.87;;;29.67;;
32082;SDS011;18597;48.328;7.932;2024-03-08T01:07:51;70.70;;;31.47;;
32082;SDS011;18597;48.328;7.932;2024-03-08T01:10:17;67.67;;;32.50;;
32082;SDS011;18597;48.328;7.932;2024-03-08T01:12:43;63.60;;;31.27;;
32082;SDS011;18597;48.328;7.932;2024-03-08T01:15:09;58.23;;;30.90;;
32082;SDS011;18597;48.328;7.932;2024-03-08T01:17:36;54.63;;;28.53;;
32082;SDS011;18597;48.328;7.932;2024-03-08T01:20:02;72.40;;;30.17;;
32082;SDS011;18597;48.328;7.932;2024-03-08T01:22:30;54.30;;;28.10;;
32082;SDS011;18597;48.328;7.932;2024-03-08T01:24:56;56.90;;;29.07;;
32082;SDS011;18597;48.328;7.932;2024-03-08T01:27:22;58.33;;;31.63;;
32082;SDS011;18597;48.328;7.932;2024-03-08T01:29:49;66.77;;;30.70;;
32082;SDS011;18597;48.328;7.932;2024-03-08T01:32:16;57.30;;;27.93;;
32082;SDS011;18597;48.328;7.932;2024-03-08T01:34:42;62.87;;;30.13;;
32082;SDS011;18597;48.328;7.932;2024-03-08T01:37:10;64.37;;;30.73;;
32082;SDS011;18597;48.328;7.932;2024-03-08T01:39:35;62.87;;;29.37;;
32082;SDS011;18597;48.328;7.932;2024-03-08T01:42:01;58.67;;;30.10;;
32082;SDS011;18597;48.328;7.932;2024-03-08T01:44:27;57.57;;;28.43;;
32082;SDS011;18597;48.328;7.932;2024-03-08T01:46:53;56.87;;;28.23;;
32082;SDS011;18597;48.328;7.932;2024-03-08T01:49:20;51.53;;;27.80;;
32082;SDS011;18597;48.328;7.932;2024-03-08T01:51:46;63.33;;;26.57;;
32082;SDS011;18597;48.328;7.932;2024-03-08T01:54:15;51.70;;;27.27;;
32082;SDS011;18597;48.328;7.932;2024-03-08T01:56:43;55.57;;;27.73;;
32082;SDS011;18597;48.328;7.932;2024-03-08T01:59:09;57.80;;;27.50;;
32082;SDS011;18597;48.328;7.932;2024-03-08T02:01:35;48.23;;;26.97;;
32082;SDS011;18597;48.328;7.932;2024-03-08T02:04:01;50.53;;;25.63;;
32082;SDS011;18597;48.328;7.932;2024-03-08T02:06:27;57.03;;;27.50;;
32082;SDS011;18597;48.328;7.932;2024-03-08T02:08:53;54.87;;;28.03;;
32082;SDS011;18597;48.328;7.932;2024-03-08T02:11:19;50.00;;;25.00;;
32082;SDS011;18597;48.328;7.932;2024-03-08T02:13:45;55.23;;;26.03;;
32082;SDS011;18597;48.328;7.932;2024-03-08T02:16:12;58.37;;;27.77;;
32082;SDS011;18597;48.328;7.932;2024-03-08T02:18:45;55.37;;;26.80;;
32082;SDS011;18597;48.328;7.932;2024-03-08T02:21:10;54.43;;;27.53;;
32082;SDS011;18597;48.328;7.932;2024-03-08T02:23:37;53.83;;;26.60;;
32082;SDS011;18597;48.328;7.932;2024-03-08T02:26:02;51.90;;;26.27;;
32082;SDS011;18597;48.328;7.932;2024-03-08T02:28:29;51.50;;;26.33;;
32082;SDS011;18597;48.328;7.932;2024-03-08T02:30:56;59.33;;;27.50;;
32082;SDS011;18597;48.328;7.932;2024-03-08T02:33:22;49.60;;;25.93;;
32082;SDS011;18597;48.328;7.932;2024-03-08T02:35:49;53.47;;;26.60;;
32082;SDS011;18597;48.328;7.932;2024-03-08T02:38:17;56.47;;;27.17;;
32082;SDS011;18597;48.328;7.932;2024-03-08T02:40:46;52.30;;;27.00;;
32082;SDS011;18597;48.328;7.932;2024-03-08T02:43:14;53.60;;;26.53;;
32082;SDS011;18597;48.328;7.932;2024-03-08T02:45:41;59.00;;;25.47;;
32082;SDS011;18597;48.328;7.932;2024-03-08T02:48:08;53.47;;;26.63;;
32082;SDS011;18597;48.328;7.932;2024-03-08T02:50:36;54.50;;;25.70;;
32082;SDS011;18597;48.328;7.932;2024-03-08T02:53:02;55.53;;;27.67;;
32082;SDS011;18597;48.328;7.932;2024-03-08T02:55:29;51.63;;;26.27;;
32082;SDS011;18597;48.328;7.932;2024-03-08T02:57:55;54.40;;;26.10;;
32082;SDS011;18597;48.328;7.932;2024-03-08T03:00:21;59.50;;;27.87;;
32082;SDS011;18597;48.328;7.932;2024-03-08T03:02:49;58.13;;;26.63;;
32082;SDS011;18597;48.328;7.932;2024-03-08T03:05:19;55.43;;;26.53;;
32082;SDS011;18597;48.328;7.932;2024-03-08T03:07:46;68.63;;;27.10;;
32082;SDS011;18597;48.328;7.932;2024-03-08T03:10:12;50.70;;;24.23;;
32082;SDS011;18597;48.328;7.932;2024-03-08T03:12:42;46.20;;;26.63;;
32082;SDS011;18597;48.328;7.932;2024-03-08T03:15:08;54.33;;;26.97;;
32082;SDS011;18597;48.328;7.932;2024-03-08T03:17:35;59.87;;;26.40;;
32082;SDS011;18597;48.328;7.932;2024-03-08T03:20:01;48.17;;;25.70;;
32082;SDS011;18597;48.328;7.932;2024-03-08T03:22:34;58.03;;;27.00;;
32082;SDS011;18597;48.328;7.932;2024-03-08T03:25:00;53.00;;;24.83;;
32082;SDS011;18597;48.328;7.932;2024-03-08T03:27:25;55.77;;;26.40;;
32082;SDS011;18597;48.328;7.932;2024-03-08T03:29:51;53.13;;;26.40;;
32082;SDS011;18597;48.328;7.932;2024-03-08T03:32:17;50.13;;;25.20;;
32082;SDS011;18597;48.328;7.932;2024-03-08T03:34:44;47.17;;;24.93;;
32082;SDS011;18597;48.328;7.932;2024-03-08T03:37:10;52.70;;;26.40;;
32082;SDS011;18597;48.328;7.932;2024-03-08T03:39:39;54.63;;;26.60;;
32082;SDS011;18597;48.328;7.932;2024-03-08T03:42:14;47.30;;;24.70;;
32082;SDS011;18597;48.328;7.932;2024-03-08T03:44:41;50.03;;;25.00;;
32082;SDS011;18597;48.328;7.932;2024-03-08T03:47:10;49.17;;;24.23;;
32082;SDS011;18597;48.328;7.932;2024-03-08T03:49:36;55.77;;;25.77;;
32082;SDS011;18597;48.328;7.932;2024-03-08T03:52:02;55.87;;;27.50;;
32082;SDS011;18597;48.328;7.932;2024-03-08T03:54:29;56.13;;;25.20;;
32082;SDS011;18597;48.328;7.932;2024-03-08T03:56:55;54.90;;;26.50;;
32082;SDS011;18597;48.328;7.932;2024-03-08T03:59:21;44.17;;;23.30;;
32082;SDS011;18597;48.328;7.932;2024-03-08T04:01:47;58.30;;;27.80;;
32082;SDS011;18597;48.328;7.932;2024-03-08T04:04:14;58.47;;;26.70;;
32082;SDS011;18597;48.328;7.932;2024-03-08T04:06:40;52.30;;;25.97;;
32082;SDS011;18597;48.328;7.932;2024-03-08T04:09:06;51.33;;;23.50;;
32082;SDS011;18597;48.328;7.932;2024-03-08T04:11:33;50.83;;;26.30;;
32082;SDS011;18597;48.328;7.932;2024-03-08T04:13:59;47.27;;;24.47;;
32082;SDS011;18597;48.328;7.932;2024-03-08T04:16:24;39.73;;;21.20;;
32082;SDS011;18597;48.328;7.932;2024-03-08T04:18:51;54.97;;;24.57;;
32082;SDS011;18597;48.328;7.932;2024-03-08T04:21:17;44.30;;;22.17;;
32082;SDS011;18597;48.328;7.932;2024-03-08T04:23:44;50.40;;;24.13;;
32082;SDS011;18597;48.328;7.932;2024-03-08T04:26:10;54.70;;;25.77;;
32082;SDS011;18597;48.328;7.932;2024-03-08T04:28:36;52.30;;;24.97;;
32082;SDS011;18597;48.328;7.932;2024-03-08T04:31:03;51.40;;;25.60;;
32082;SDS011;18597;48.328;7.932;2024-03-08T04:33:29;51.30;;;24.60;;
32082;SDS011;18597;48.328;7.932;2024-03-08T04:35:55;46.47;;;22.90;;
32082;SDS011;18597;48.328;7.932;2024-03-08T04:38:21;51.77;;;22.80;;
32082;SDS011;18597;48.328;7.932;2024-03-08T04:40:47;53.50;;;28.87;;
32082;SDS011;18597;48.328;7.932;2024-03-08T04:43:14;43.70;;;23.93;;
32082;SDS011;18597;48.328;7.932;2024-03-08T04:45:40;43.50;;;22.60;;
32082;SDS011;18597;48.328;7.932;2024-03-08T04:48:07;52.80;;;27.50;;
32082;SDS011;18597;48.328;7.932;2024-03-08T04:50:33;58.23;;;25.33;;
32082;SDS011;18597;48.328;7.932;2024-03-08T04:52:59;49.33;;;25.37;;
32082;SDS011;18597;48.328;7.932;2024-03-08T04:55:25;52.23;;;25.67;;
32082;SDS011;18597;48.328;7.932;2024-03-08T04:57:51;52.70;;;23.40;;
32082;SDS011;18597;48.328;7.932;2024-03-08T05:00:18;48.40;;;23.23;;
32082;SDS011;18597;48.328;7.932;2024-03-08T05:02:44;46.43;;;25.13;;
32082;SDS011;18597;48.328;7.932;2024-03-08T05:05:10;59.90;;;25.67;;
32082;SDS011;18597;48.328;7.932;2024-03-08T05:07:38;45.50;;;24.50;;
32082;SDS011;18597;48.328;7.932;2024-03-08T05:10:05;43.30;;;22.63;;
32082;SDS011;18597;48.328;7.932;2024-03-08T05:12:32;46.97;;;22.87;;
32082;SDS011;18597;48.328;7.932;2024-03-08T05:14:58;47.60;;;23.50;;
32082;SDS011;18597;48.328;7.932;2024-03-08T05:17:25;48.23;;;23.87;;
32082;SDS011;18597;48.328;7.932;2024-03-08T05:19:51;47.37;;;23.67;;
32082;SDS011;18597;48.328;7.932;2024-03-08T05:22:17;48.30;;;24.03;;
32082;SDS011;18597;48.328;7.932;2024-03-08T05:24:43;46.10;;;23.77;;
32082;SDS011;18597;48.328;7.932;2024-03-08T05:27:09;53.23;;;24.53;;
32082;SDS011;18597;48.328;7.932;2024-03-08T05:29:36;57.93;;;26.60;;
32082;SDS011;18597;48.328;7.932;2024-03-08T05:32:02;51.77;;;25.40;;
32082;SDS011;18597;48.328;7.932;2024-03-08T05:34:29;59.93;;;28.50;;
32082;SDS011;18597;48.328;7.932;2024-03-08T05:36:55;56.63;;;27.73;;
32082;SDS011;18597;48.328;7.932;2024-03-08T05:39:23;54.37;;;26.07;;
32082;SDS011;18597;48.328;7.932;2024-03-08T05:41:49;51.40;;;24.47;;
32082;SDS011;18597;48.328;7.932;2024-03-08T05:44:15;57.33;;;25.87;;
32082;SDS011;18597;48.328;7.932;2024-03-08T05:46:42;46.07;;;24.97;;
32082;SDS011;18597;48.328;7.932;2024-03-08T05:49:08;60.00;;;27.00;;
32082;SDS011;18597;48.328;7.932;2024-03-08T05:51:35;49.50;;;23.63;;
32082;SDS011;18597;48.328;7.932;2024-03-08T05:54:04;53.03;;;25.10;;
32082;SDS011;18597;48.328;7.932;2024-03-08T05:56:34;50.60;;;25.00;;
32082;SDS011;18597;48.328;7.932;2024-03-08T05:59:00;56.00;;;25.90;;
32082;SDS011;18597;48.328;7.932;2024-03-08T06:01:27;49.47;;;26.20;;
32082;SDS011;18597;48.328;7.932;2024-03-08T06:03:54;48.37;;;24.80;;
32082;SDS011;18597;48.328;7.932;2024-03-08T06:06:22;48.60;;;25.10;;
32082;SDS011;18597;48.328;7.932;2024-03-08T06:08:49;52.30;;;25.87;;
32082;SDS011;18597;48.328;7.932;2024-03-08T06:11:16;59.40;;;26.33;;
32082;SDS011;18597;48.328;7.932;2024-03-08T06:13:44;50.27;;;24.70;;
32082;SDS011;18597;48.328;7.932;2024-03-08T06:16:10;48.30;;;25.67;;
32082;SDS011;18597;48.328;7.932;2024-03-08T06:18:36;54.27;;;25.63;;
32082;SDS011;18597;48.328;7.932;2024-03-08T06:21:03;53.90;;;28.00;;
32082;SDS011;18597;48.328;7.932;2024-03-08T06:23:32;54.33;;;27.50;;
32082;SDS011;18597;48.328;7.932;2024-03-08T06:25:58;63.57;;;29.20;;
32082;SDS011;18597;48.328;7.932;2024-03-08T06:28:24;54.23;;;28.33;;
32082;SDS011;18597;48.328;7.932;2024-03-08T06:30:50;51.90;;;25.63;;
32082;SDS011;18597;48.328;7.932;2024-03-08T06:33:17;52.00;;;29.27;;
32082;SDS011;18597;48.328;7.932;2024-03-08T06:35:43;58.60;;;27.83;;
32082;SDS011;18597;48.328;7.932;2024-03-08T06:38:09;54.03;;;26.47;;
32082;SDS011;18597;48.328;7.932;2024-03-08T06:40:36;58.13;;;27.40;;
32082;SDS011;18597;48.328;7.932;2024-03-08T06:43:02;55.73;;;26.43;;
32082;SDS011;18597;48.328;7.932;2024-03-08T06:45:31;49.77;;;24.73;;
32082;SDS011;18597;48.328;7.932;2024-03-08T06:47:57;40.17;;;21.47;;
32082;SDS011;18597;48.328;7.932;2024-03-08T06:50:23;29.60;;;19.53;;
32082;SDS011;18597;48.328;7.932;2024-03-08T06:52:49;30.87;;;19.90;;
32082;SDS011;18597;48.328;7.932;2024-03-08T06:55:18;29.40;;;18.50;;
32082;SDS011;18597;48.328;7.932;2024-03-08T06:57:45;31.53;;;21.37;;
32082;SDS011;18597;48.328;7.932;2024-03-08T07:00:11;32.97;;;21.90;;
32082;SDS011;18597;48.328;7.932;2024-03-08T07:02:43;28.00;;;18.80;;
32082;SDS011;18597;48.328;7.932;2024-03-08T07:05:11;31.97;;;19.60;;
32082;SDS011;18597;48.328;7.932;2024-03-08T07:07:37;26.90;;;21.17;;
32082;SDS011;18597;48.328;7.932;2024-03-08T07:10:03;30.57;;;18.10;;
32082;SDS011;18597;48.328;7.932;2024-03-08T07:12:29;26.77;;;20.43;;
32082;SDS011;18597;48.328;7.932;2024-03-08T07:14:55;25.93;;;18.60;;
32082;SDS011;18597;48.328;7.932;2024-03-08T07:17:21;27.93;;;19.70;;
32082;SDS011;18597;48.328;7.932;2024-03-08T07:19:47;31.03;;;23.07;;
32082;SDS011;18597;48.328;7.932;2024-03-08T07:22:13;30.50;;;20.00;;
32082;SDS011;18597;48.328;7.932;2024-03-08T07:24:39;38.20;;;21.80;;
32082;SDS011;18597;48.328;7.932;2024-03-08T07:27:23;29.53;;;21.03;;
32082;SDS011;18597;48.328;7.932;2024-03-08T07:29:49;29.80;;;20.90;;
32082;SDS011;18597;48.328;7.932;2024-03-08T07:32:14;26.33;;;20.40;;
32082;SDS011;18597;48.328;7.932;2024-03-08T07:34:46;28.23;;;20.30;;
32082;SDS011;18597;48.328;7.932;2024-03-08T07:37:15;23.93;;;18.80;;
32082;SDS011;18597;48.328;7.932;2024-03-08T07:39:42;27.27;;;19.57;;
32082;SDS011;18597;48.328;7.932;2024-03-08T07:42:08;20.37;;;17.00;;
32082;SDS011;18597;48.328;7.932;2024-03-08T07:44:35;20.60;;;16.87;;
32082;SDS011;18597;48.328;7.932;2024-03-08T07:47:01;21.27;;;17.80;;
32082;SDS011;18597;48.328;7.932;2024-03-08T07:49:28;18.43;;;16.37;;
32082;SDS011;18597;48.328;7.932;2024-03-08T07:51:55;18.47;;;16.57;;
32082;SDS011;18597;48.328;7.932;2024-03-08T07:54:22;18.47;;;16.20;;
32082;SDS011;18597;48.328;7.932;2024-03-08T07:56:48;17.67;;;15.77;;
32082;SDS011;18597;48.328;7.932;2024-03-08T07:59:16;17.37;;;15.57;;
32082;SDS011;18597;48.328;7.932;2024-03-08T08:01:42;17.40;;;15.60;;
32082;SDS011;18597;48.328;7.932;2024-03-08T08:04:09;22.43;;;14.77;;
32082;SDS011;18597;48.328;7.932;2024-03-08T08:06:37;17.43;;;15.67;;
32082;SDS011;18597;48.328;7.932;2024-03-08T08:09:06;16.83;;;14.83;;
32082;SDS011;18597;48.328;7.932;2024-03-08T08:11:41;16.70;;;15.00;;
32082;SDS011;18597;48.328;7.932;2024-03-08T08:14:08;16.27;;;14.60;;
32082;SDS011;18597;48.328;7.932;2024-03-08T08:16:35;18.17;;;15.60;;
32082;SDS011;18597;48.328;7.932;2024-03-08T08:19:02;18.73;;;16.03;;
32082;SDS011;18597;48.328;7.932;2024-03-08T08:21:33;18.50;;;15.80;;
32082;SDS011;18597;48.328;7.932;2024-03-08T08:24:02;18.40;;;14.47;;
32082;SDS011;18597;48.328;7.932;2024-03-08T08:26:29;24.67;;;17.77;;
32082;SDS011;18597;48.328;7.932;2024-03-08T08:28:55;26.33;;;16.50;;
32082;SDS011;18597;48.328;7.932;2024-03-08T08:31:20;23.00;;;15.90;;
32082;SDS011;18597;48.328;7.932;2024-03-08T08:33:46;21.93;;;14.57;;
32082;SDS011;18597;48.328;7.932;2024-03-08T08:36:14;26.13;;;15.23;;
32082;SDS011;18597;48.328;7.932;2024-03-08T08:38:40;26.23;;;16.83;;
32082;SDS011;18597;48.328;7.932;2024-03-08T08:41:09;25.67;;;15.40;;
32082;SDS011;18597;48.328;7.932;2024-03-08T08:43:36;24.00;;;15.23;;
32082;SDS011;18597;48.328;7.932;2024-03-08T08:46:02;19.40;;;13.47;;
32082;SDS011;18597;48.328;7.932;2024-03-08T08:48:29;23.93;;;14.47;;
32082;SDS011;18597;48.328;7.932;2024-03-08T08:50:56;21.10;;;13.40;;
32082;SDS011;18597;48.328;7.932;2024-03-08T08:53:21;20.70;;;13.97;;
32082;SDS011;18597;48.328;7.932;2024-03-08T08:55:47;22.90;;;13.37;;
32082;SDS011;18597;48.328;7.932;2024-03-08T08:58:13;23.47;;;14.40;;
32082;SDS011;18597;48.328;7.932;2024-03-08T09:00:39;21.10;;;15.00;;
32082;SDS011;18597;48.328;7.932;2024-03-08T09:03:05;25.03;;;15.47;;
32082;SDS011;18597;48.328;7.932;2024-03-08T09:05:32;24.17;;;14.57;;
32082;SDS011;18597;48.328;7.932;2024-03-08T09:07:59;19.83;;;13.90;;
32082;SDS011;18597;48.328;7.932;2024-03-08T09:10:25;21.53;;;13.80;;
32082;SDS011;18597;48.328;7.932;2024-03-08T09:12:52;22.67;;;12.87;;
32082;SDS011;18597;48.328;7.932;2024-03-08T09:15:18;25.40;;;13.00;;
32082;SDS011;18597;48.328;7.932;2024-03-08T09:17:45;20.03;;;12.50;;
32082;SDS011;18597;48.328;7.932;2024-03-08T09:20:13;19.80;;;12.67;;
32082;SDS011;18597;48.328;7.932;2024-03-08T09:22:40;23.00;;;12.60;;
32082;SDS011;18597;48.328;7.932;2024-03-08T09:25:09;22.70;;;12.57;;
32082;SDS011;18597;48.328;7.932;2024-03-08T09:27:35;14.07;;;9.73;;
32082;SDS011;18597;48.328;7.932;2024-03-08T09:30:01;21.93;;;13.27;;
32082;SDS011;18597;48.328;7.932;2024-03-08T09:32:27;19.73;;;12.97;;
32082;SDS011;18597;48.328;7.932;2024-03-08T09:34:53;26.20;;;14.67;;
32082;SDS011;18597;48.328;7.932;2024-03-08T09:37:20;27.07;;;15.70;;
32082;SDS011;18597;48.328;7.932;2024-03-08T09:39:46;22.13;;;12.73;;
32082;SDS011;18597;48.328;7.932;2024-03-08T09:42:12;23.60;;;13.37;;
32082;SDS011;18597;48.328;7.932;2024-03-08T09:44:43;18.53;;;11.47;;
32082;SDS011;18597;48.328;7.932;2024-03-08T09:47:12;17.20;;;10.53;;
32082;SDS011;18597;48.328;7.932;2024-03-08T09:49:39;21.90;;;13.40;;
32082;SDS011;18597;48.328;7.932;2024-03-08T09:52:07;15.97;;;12.03;;
32082;SDS011;18597;48.328;7.932;2024-03-08T09:54:34;21.50;;;12.87;;
32082;SDS011;18597;48.328;7.932;2024-03-08T09:57:00;20.10;;;11.77;;
32082;SDS011;18597;48.328;7.932;2024-03-08T09:59:29;17.20;;;12.23;;
32082;SDS011;18597;48.328;7.932;2024-03-08T10:02:13;19.10;;;12.07;;
32082;SDS011;18597;48.328;7.932;2024-03-08T10:04:40;18.53;;;12.03;;
32082;SDS011;18597;48.328;7.932;2024-03-08T10:07:08;18.90;;;12.10;;
32082;SDS011;18597;48.328;7.932;2024-03-08T10:09:33;20.40;;;13.70;;
32082;SDS011;18597;48.328;7.932;2024-03-08T10:12:00;18.33;;;11.00;;
32082;SDS011;18597;48.328;7.932;2024-03-08T10:14:27;21.00;;;11.83;;
32082;SDS011;18597;48.328;7.932;2024-03-08T10:16:53;19.30;;;11.87;;
32082;SDS011;18597;48.328;7.932;2024-03-08T10:19:19;21.40;;;12.47;;
32082;SDS011;18597;48.328;7.932;2024-03-08T10:21:48;23.40;;;14.97;;
32082;SDS011;18597;48.328;7.932;2024-03-08T10:24:18;26.00;;;13.70;;
32082;SDS011;18597;48.328;7.932;2024-03-08T10:26:44;26.73;;;16.03;;
32082;SDS011;18597;48.328;7.932;2024-03-08T10:29:09;15.07;;;10.53;;
32082;SDS011;18597;48.328;7.932;2024-03-08T10:31:40;16.87;;;12.37;;
32082;SDS011;18597;48.328;7.932;2024-03-08T10:34:10;24.33;;;14.57;;
32082;SDS011;18597;48.328;7.932;2024-03-08T10:36:36;22.33;;;13.40;;
32082;SDS011;18597;48.328;7.932;2024-03-08T10:39:05;26.33;;;14.30;;
32082;SDS011;18597;48.328;7.932;2024-03-08T10:41:45;20.33;;;13.50;;
32082;SDS011;18597;48.328;7.932;2024-03-08T10:47:14;22.93;;;12.77;;
32082;SDS011;18597;48.328;7.932;2024-03-08T10:49:55;20.30;;;13.83;;
32082;SDS011;18597;48.328;7.932;2024-03-08T10:52:50;21.90;;;14.00;;
32082;SDS011;18597;48.328;7.932;2024-03-08T10:55:18;30.13;;;15.60;;
32082;SDS011;18597;48.328;7.932;2024-03-08T10:57:45;20.70;;;14.70;;
32082;SDS011;18597;48.328;7.932;2024-03-08T11:00:13;21.73;;;13.83;;
32082;SDS011;18597;48.328;7.932;2024-03-08T11:02:46;16.10;;;12.00;;
32082;SDS011;18597;48.328;7.932;2024-03-08T11:05:15;19.23;;;12.43;;
32082;SDS011;18597;48.328;7.932;2024-03-08T11:08:21;19.80;;;13.10;;
32082;SDS011;18597;48.328;7.932;2024-03-08T11:10:52;21.07;;;12.57;;
32082;SDS011;18597;48.328;7.932;2024-03-08T11:13:36;18.80;;;12.53;;
32082;SDS011;18597;48.328;7.932;2024-03-08T11:16:07;18.50;;;11.70;;
32082;SDS011;18597;48.328;7.932;2024-03-08T11:18:35;22.90;;;12.43;;
32082;SDS011;18597;48.328;7.932;2024-03-08T11:21:03;16.90;;;12.67;;
32082;SDS011;18597;48.328;7.932;2024-03-08T11:23:32;18.47;;;13.00;;
32082;SDS011;18597;48.328;7.932;2024-03-08T11:25:58;15.70;;;12.17;;
32082;SDS011;18597;48.328;7.932;2024-03-08T11:28:25;18.17;;;12.57;;
32082;SDS011;18597;48.328;7.932;2024-03-08T11:33:34;19.03;;;11.73;;
32082;SDS011;18597;48.328;7.932;2024-03-08T11:36:12;19.43;;;11.80;;
32082;SDS011;18597;48.328;7.932;2024-03-08T11:38:47;15.57;;;11.33;;
32082;SDS011;18597;48.328;7.932;2024-03-08T11:41:16;18.10;;;11.97;;
32082;SDS011;18597;48.328;7.932;2024-03-08T11:43:44;19.60;;;11.87;;
32082;SDS011;18597;48.328;7.932;2024-03-08T11:46:12;21.57;;;12.43;;
32082;SDS011;18597;48.328;7.932;2024-03-08T11:48:39;16.97;;;11.83;;
32082;SDS011;18597;48.328;7.932;2024-03-08T11:51:08;17.90;;;12.77;;
32082;SDS011;18597;48.328;7.932;2024-03-08T11:53:37;18.40;;;13.10;;
32082;SDS011;18597;48.328;7.932;2024-03-08T11:56:11;17.77;;;12.07;;
32082;SDS011;18597;48.328;7.932;2024-03-08T11:58:38;16.10;;;11.60;;
32082;SDS011;18597;48.328;7.932;2024-03-08T12:01:06;16.63;;;10.70;;
32082;SDS011;18597;48.328;7.932;2024-03-08T12:03:42;14.90;;;10.20;;
32082;SDS011;18597;48.328;7.932;2024-03-08T12:06:11;22.40;;;12.77;;
32082;SDS011;18597;48.328;7.932;2024-03-08T12:08:40;16.17;;;10.97;;
32082;SDS011;18597;48.328;7.932;2024-03-08T12:11:06;17.80;;;10.53;;
32082;SDS011;18597;48.328;7.932;2024-03-08T12:13:35;15.77;;;10.93;;
32082;SDS011;18597;48.328;7.932;2024-03-08T12:16:02;14.27;;;10.60;;
32082;SDS011;18597;48.328;7.932;2024-03-08T12:18:32;13.30;;;10.70;;
32082;SDS011;18597;48.328;7.932;2024-03-08T12:21:15;13.23;;;9.10;;
32082;SDS011;18597;48.328;7.932;2024-03-08T12:23:45;12.07;;;9.40;;
32082;SDS011;18597;48.328;7.932;2024-03-08T12:26:16;15.43;;;10.13;;
32082;SDS011;18597;48.328;7.932;2024-03-08T12:28:48;16.27;;;9.87;;
32082;SDS011;18597;48.328;7.932;2024-03-08T12:31:15;10.40;;;8.47;;
32082;SDS011;18597;48.328;7.932;2024-03-08T12:33:49;13.83;;;9.27;;
32082;SDS011;18597;48.328;7.932;2024-03-08T12:36:16;10.43;;;8.60;;
32082;SDS011;18597;48.328;7.932;2024-03-08T12:38:45;10.17;;;8.50;;
32082;SDS011;18597;48.328;7.932;2024-03-08T12:41:13;9.17;;;7.70;;
32082;SDS011;18597;48.328;7.932;2024-03-08T12:43:40;13.10;;;8.90;;
32082;SDS011;18597;48.328;7.932;2024-03-08T12:46:06;15.87;;;9.03;;
32082;SDS011;18597;48.328;7.932;2024-03-08T12:48:34;13.40;;;9.07;;
32082;SDS011;18597;48.328;7.932;2024-03-08T12:51:02;14.47;;;8.70;;
32082;SDS011;18597;48.328;7.932;2024-03-08T12:53:28;13.87;;;8.87;;
32082;SDS011;18597;48.328;7.932;2024-03-08T12:55:54;9.47;;;7.43;;
32082;SDS011;18597;48.328;7.932;2024-03-08T12:58:21;9.40;;;7.70;;
32082;SDS011;18597;48.328;7.932;2024-03-08T13:00:47;11.50;;;8.70;;
32082;SDS011;18597;48.328;7.932;2024-03-08T13:03:14;17.33;;;10.13;;
32082;SDS011;18597;48.328;7.932;2024-03-08T13:05:39;9.10;;;8.17;;
32082;SDS011;18597;48.328;7.932;2024-03-08T13:08:07;10.43;;;8.20;;
32082;SDS011;18597;48.328;7.932;2024-03-08T13:10:41;10.13;;;8.57;;
32082;SDS011;18597;48.328;7.932;2024-03-08T13:13:08;10.07;;;7.70;;
32082;SDS011;18597;48.328;7.932;2024-03-08T13:15:36;11.33;;;8.00;;
32082;SDS011;18597;48.328;7.932;2024-03-08T13:18:02;10.50;;;8.50;;
32082;SDS011;18597;48.328;7.932;2024-03-08T13:20:28;10.97;;;8.07;;
32082;SDS011;18597;48.328;7.932;2024-03-08T13:22:54;13.90;;;8.57;;
32082;SDS011;18597;48.328;7.932;2024-03-08T13:25:21;12.30;;;8.10;;
32082;SDS011;18597;48.328;7.932;2024-03-08T13:27:48;11.10;;;8.03;;
32082;SDS011;18597;48.328;7.932;2024-03-08T13:30:14;13.80;;;8.57;;
32082;SDS011;18597;48.328;7.932;2024-03-08T13:32:43;10.90;;;8.67;;
32082;SDS011;18597;48.328;7.932;2024-03-08T13:35:10;13.47;;;8.30;;
32082;SDS011;18597;48.328;7.932;2024-03-08T13:37:39;9.30;;;7.53;;
32082;SDS011;18597;48.328;7.932;2024-03-08T13:40:06;8.80;;;7.80;;
32082;SDS011;18597;48.328;7.932;2024-03-08T13:42:37;12.87;;;8.07;;
32082;SDS011;18597;48.328;7.932;2024-03-08T13:45:04;9.87;;;7.83;;
32082;SDS011;18597;48.328;7.932;2024-03-08T13:47:33;10.10;;;7.07;;
32082;SDS011;18597;48.328;7.932;2024-03-08T13:49:59;10.37;;;7.70;;
32082;SDS011;18597;48.328;7.932;2024-03-08T13:52:25;9.80;;;7.70;;
32082;SDS011;18597;48.328;7.932;2024-03-08T13:54:54;10.10;;;7.60;;
32082;SDS011;18597;48.328;7.932;2024-03-08T13:57:21;11.73;;;8.03;;
32082;SDS011;18597;48.328;7.932;2024-03-08T13:59:47;10.47;;;8.93;;
32082;SDS011;18597;48.328;7.932;2024-03-08T14:02:16;10.40;;;8.73;;
32082;SDS011;18597;48.328;7.932;2024-03-08T14:04:42;11.10;;;8.13;;
32082;SDS011;18597;48.328;7.932;2024-03-08T14:07:08;12.63;;;9.03;;
32082;SDS011;18597;48.328;7.932;2024-03-08T14:09:36;9.50;;;8.00;;
32082;SDS011;18597;48.328;7.932;2024-03-08T14:12:07;14.23;;;9.17;;
32082;SDS011;18597;48.328;7.932;2024-03-08T14:14:33;10.27;;;8.30;;
32082;SDS011;18597;48.328;7.932;2024-03-08T14:17:00;9.60;;;6.83;;
32082;SDS011;18597;48.328;7.932;2024-03-08T14:19:27;8.60;;;7.80;;
32082;SDS011;18597;48.328;7.932;2024-03-08T14:21:55;9.17;;;7.63;;
32082;SDS011;18597;48.328;7.932;2024-03-08T14:24:24;14.40;;;8.10;;
32082;SDS011;18597;48.328;7.932;2024-03-08T14:26:50;10.40;;;7.37;;
32082;SDS011;18597;48.328;7.932;2024-03-08T14:29:16;8.60;;;7.80;;
32082;SDS011;18597;48.328;7.932;2024-03-08T14:31:43;11.90;;;7.43;;